Saint Louis, Oklahoma
Current Conditions -  °F | °C
As of 11:55 AM on Tuesday 21 Oct 2014 (Local Time) from KADH Reporting Station
Clear Clear  
Wind Chill: 77°   Ceiling: Unl
Heat Index: 79°   Visibility: 10mi
Dew Point: 63°   Wind: 0mph
Humidity: 61%   Direction: NA
Pressure: 30.12"   Gusts: NA
Location:  35.07°N, 96.85°W
Report Text: KADH 211655Z AUTO 00000KT 10SM CLR 25/17 A3012 RMK AO2
Loading
Personal Weather Stations






























Interactive Weather Map
Tropical Storm Tracking
New forecast layout! Learn more

10-Day Weather Forecast

Advertisements
Track Severe Weather on mobile